Time;durP1;ratioP1;P1;durP2;ratioP2;P2;SDS_P1;SDS_P2;PMS_P1;PMS_P2;Temp;Humidity;BMP_temperature;BMP_pressure;BME280_temperature;BME280_humidity;BME280_pressure;Samples;Min_cycle;Max_cycle;Signal;HPM_P1;HPM_P2
2021/04/07 00:00:24;;;;;;;4.45;1.92;;;5.30;88.90;;;;;;5017879;28;20136;-73
2021/04/07 00:02:50;;;;;;;5.55;1.90;;;5.30;88.70;;;;;;5013769;28;22453;-74
2021/04/07 00:05:22;;;;;;;8.00;2.30;;;5.30;88.60;;;;;;5027469;28;20036;-73
2021/04/07 00:07:50;;;;;;;6.15;2.00;;;5.30;88.60;;;;;;5013400;28;20021;-74
2021/04/07 00:10:18;;;;;;;6.05;2.33;;;5.30;88.40;;;;;;5019033;28;20107;-74
2021/04/07 00:12:43;;;;;;;4.65;1.88;;;5.30;88.40;;;;;;5011815;28;20084;-74
2021/04/07 00:15:19;;;;;;;5.72;1.85;;;5.30;88.30;;;;;;5020551;28;20025;-74
2021/04/07 00:17:46;;;;;;;4.72;2.00;;;5.30;88.30;;;;;;5018504;28;20371;-74
2021/04/07 00:20:17;;;;;;;6.15;2.00;;;5.30;88.10;;;;;;5027039;28;20033;-75
2021/04/07 00:22:42;;;;;;;4.32;1.60;;;5.30;88.40;;;;;;5010668;28;20032;-75
2021/04/07 00:25:09;;;;;;;6.88;1.80;;;5.20;88.70;;;;;;5012299;28;20026;-75
2021/04/07 00:27:37;;;;;;;5.97;2.10;;;5.30;88.60;;;;;;5012076;28;20030;-75
2021/04/07 00:30:07;;;;;;;4.75;2.03;;;5.30;88.50;;;;;;5011879;28;20053;-75
2021/04/07 00:32:32;;;;;;;7.40;1.83;;;5.30;88.90;;;;;;5010101;28;20084;-75
2021/04/07 00:34:58;;;;;;;5.15;1.90;;;5.30;88.80;;;;;;5013443;28;20018;-75
2021/04/07 00:37:23;;;;;;;5.55;2.00;;;5.30;88.90;;;;;;4986423;28;20089;-74
2021/04/07 00:39:49;;;;;;;5.18;1.70;;;5.30;88.90;;;;;;5002631;28;20474;-75
2021/04/07 00:42:14;;;;;;;4.45;1.60;;;5.30;89.00;;;;;;4998127;28;20486;-76
2021/04/07 00:44:40;;;;;;;6.43;2.08;;;5.30;89.00;;;;;;5007063;28;20168;-75
2021/04/07 00:47:06;;;;;;;4.18;1.90;;;5.30;88.90;;;;;;5031455;28;20033;-75
2021/04/07 00:49:31;;;;;;;3.53;1.88;;;5.30;88.70;;;;;;5023974;28;20037;-74
2021/04/07 00:51:57;;;;;;;5.80;2.05;;;5.30;88.90;;;;;;5018319;28;20026;-75
2021/04/07 00:54:22;;;;;;;9.32;2.42;;;5.30;88.80;;;;;;5012123;28;20041;-75
2021/04/07 00:56:49;;;;;;;9.73;2.50;;;5.20;88.80;;;;;;5032616;28;20029;-76
2021/04/07 00:59:16;;;;;;;4.22;1.85;;;5.20;88.80;;;;;;5026458;28;20040;-75
2021/04/07 01:01:42;;;;;;;5.20;1.95;;;5.30;89.10;;;;;;5025053;28;20495;-75
2021/04/07 01:04:10;;;;;;;5.35;1.80;;;5.20;88.80;;;;;;5016096;28;20026;-75
2021/04/07 01:06:38;;;;;;;6.50;1.80;;;5.20;88.50;;;;;;4997061;28;20084;-74
2021/04/07 01:09:03;;;;;;;7.28;2.22;;;5.20;88.10;;;;;;5015560;28;20101;-75
2021/04/07 01:11:29;;;;;;;5.85;2.35;;;5.20;88.20;;;;;;5017418;28;20656;-75
2021/04/07 01:13:55;;;;;;;7.75;1.85;;;5.20;88.00;;;;;;5015415;28;20026;-75
2021/04/07 01:16:21;;;;;;;6.53;2.20;;;5.20;87.90;;;;;;5017965;28;20022;-74
2021/04/07 01:18:47;;;;;;;6.55;2.38;;;5.20;87.70;;;;;;5015710;28;20034;-74
2021/04/07 01:21:12;;;;;;;7.10;2.00;;;5.20;87.70;;;;;;5016655;28;20145;-74
2021/04/07 01:23:46;;;;;;;6.65;2.40;;;5.20;87.80;;;;;;5015569;28;20029;-74
2021/04/07 01:26:12;;;;;;;5.20;2.25;;;5.10;88.20;;;;;;5018065;28;20045;-74
2021/04/07 01:28:39;;;;;;;7.25;2.65;;;5.10;88.20;;;;;;5015463;28;20521;-74
2021/04/07 01:31:05;;;;;;;5.50;2.28;;;5.00;88.40;;;;;;5001313;28;20028;-74
2021/04/07 01:33:30;;;;;;;5.68;2.15;;;5.10;88.10;;;;;;5019968;28;20132;-73
2021/04/07 01:35:56;;;;;;;9.02;2.28;;;5.10;88.30;;;;;;5018360;28;20444;-74
2021/04/07 01:38:22;;;;;;;4.03;1.90;;;5.10;88.10;;;;;;5006950;28;20496;-76
2021/04/07 01:40:49;;;;;;;6.85;2.30;;;5.10;88.20;;;;;;5022903;28;20044;-77
2021/04/07 01:43:17;;;;;;;5.53;2.10;;;5.10;88.20;;;;;;5025087;28;20041;-74
2021/04/07 01:45:45;;;;;;;4.97;2.25;;;5.10;88.30;;;;;;5018881;28;20049;-74
2021/04/07 01:48:12;;;;;;;6.38;2.45;;;5.20;88.20;;;;;;5014435;28;20033;-73
2021/04/07 01:50:40;;;;;;;8.98;2.40;;;5.10;88.20;;;;;;5019958;28;20132;-72
2021/04/07 01:53:06;;;;;;;7.60;2.60;;;5.10;88.00;;;;;;5028116;28;20395;-72
2021/04/07 01:55:31;;;;;;;6.72;2.03;;;5.10;88.20;;;;;;5012992;28;20045;-73
2021/04/07 01:57:57;;;;;;;6.28;2.47;;;5.10;88.00;;;;;;5014722;28;20567;-73
2021/04/07 02:00:22;;;;;;;6.07;2.20;;;5.00;88.30;;;;;;5012991;28;20110;-73
2021/04/07 02:02:48;;;;;;;5.47;2.13;;;5.10;88.90;;;;;;5014249;28;20061;-73
2021/04/07 02:05:15;;;;;;;4.70;2.05;;;5.00;88.30;;;;;;5025577;28;20140;-73
2021/04/07 02:07:40;;;;;;;4.30;2.13;;;5.00;88.30;;;;;;5013394;28;20402;-73
2021/04/07 02:10:07;;;;;;;3.67;1.92;;;5.10;88.30;;;;;;5029500;28;20033;-73
2021/04/07 02:12:33;;;;;;;5.70;2.38;;;5.00;88.20;;;;;;5023738;28;20033;-74
2021/04/07 02:14:59;;;;;;;4.75;1.88;;;5.10;88.20;;;;;;5034103;28;20069;-74
2021/04/07 02:17:25;;;;;;;5.63;2.63;;;5.10;88.30;;;;;;5022793;28;20030;-73
2021/04/07 02:19:50;;;;;;;4.68;2.03;;;5.00;88.10;;;;;;5016180;28;20425;-73
2021/04/07 02:22:17;;;;;;;5.15;2.03;;;5.10;88.20;;;;;;5022000;28;20033;-73
2021/04/07 02:24:45;;;;;;;7.22;2.40;;;5.00;88.00;;;;;;5014427;28;20116;-73
2021/04/07 02:27:15;;;;;;;4.57;1.98;;;5.10;88.10;;;;;;5020323;28;20100;-73
2021/04/07 02:29:43;;;;;;;6.20;2.22;;;5.00;88.00;;;;;;5032641;28;20026;-73
2021/04/07 02:32:10;;;;;;;9.05;2.92;;;5.00;88.10;;;;;;5016237;28;20536;-74
2021/04/07 02:34:36;;;;;;;8.55;2.40;;;5.00;88.10;;;;;;5013965;28;20062;-74
2021/04/07 02:37:02;;;;;;;4.75;2.38;;;4.90;88.00;;;;;;5019305;28;20087;-74
2021/04/07 02:39:28;;;;;;;5.75;2.08;;;4.90;88.00;;;;;;5023229;28;20029;-74
2021/04/07 02:41:53;;;;;;;6.00;2.13;;;5.00;88.10;;;;;;5013129;28;20482;-74
2021/04/07 02:44:20;;;;;;;8.10;2.55;;;5.00;87.90;;;;;;5015038;28;20462;-74
2021/04/07 02:46:46;;;;;;;7.45;2.50;;;5.10;88.00;;;;;;5016810;28;20120;-74
2021/04/07 02:49:11;;;;;;;4.95;2.38;;;5.00;88.30;;;;;;5019470;28;20109;-74
2021/04/07 02:51:37;;;;;;;5.32;2.65;;;5.00;88.30;;;;;;5030969;28;20029;-74
2021/04/07 02:54:03;;;;;;;8.57;2.25;;;5.00;88.20;;;;;;4999168;28;20117;-74
2021/04/07 02:56:30;;;;;;;8.57;2.15;;;5.00;88.20;;;;;;5014058;28;20034;-73
2021/04/07 02:58:56;;;;;;;6.95;2.15;;;5.00;88.10;;;;;;5018282;28;20468;-73
2021/04/07 03:01:21;;;;;;;6.18;2.28;;;5.00;88.10;;;;;;5016820;28;20049;-73
2021/04/07 03:03:47;;;;;;;5.70;2.25;;;5.00;88.20;;;;;;5009336;28;20017;-73
2021/04/07 03:06:12;;;;;;;3.78;2.47;;;5.00;88.10;;;;;;5012163;28;20466;-73
2021/04/07 03:08:38;;;;;;;6.70;2.50;;;5.00;87.90;;;;;;5011447;28;20041;-73
2021/04/07 03:11:04;;;;;;;6.68;2.00;;;5.00;87.80;;;;;;5013179;28;20463;-73
2021/04/07 03:13:29;;;;;;;7.03;2.13;;;5.00;87.80;;;;;;5012994;28;20088;-74
2021/04/07 03:15:55;;;;;;;5.72;2.30;;;5.00;88.00;;;;;;5012207;28;20161;-73
2021/04/07 03:18:20;;;;;;;6.63;3.25;;;5.00;88.10;;;;;;5013092;28;20025;-73
2021/04/07 03:20:46;;;;;;;5.93;2.03;;;5.00;88.20;;;;;;5012806;28;20029;-74
2021/04/07 03:23:11;;;;;;;8.75;2.75;;;5.00;88.20;;;;;;5013038;28;20018;-73
2021/04/07 03:25:37;;;;;;;5.57;2.30;;;5.00;88.20;;;;;;5013681;28;20057;-74
2021/04/07 03:28:02;;;;;;;6.50;2.50;;;5.00;88.30;;;;;;5012610;28;20037;-74
2021/04/07 03:30:28;;;;;;;6.32;2.42;;;5.00;88.40;;;;;;5019874;28;20541;-74
2021/04/07 03:32:53;;;;;;;5.82;2.58;;;5.00;88.60;;;;;;5015151;28;20066;-74
2021/04/07 03:35:19;;;;;;;4.70;2.45;;;4.90;88.80;;;;;;5012994;28;20033;-74
2021/04/07 03:37:44;;;;;;;9.60;2.83;;;5.00;88.60;;;;;;5011587;28;20033;-74
2021/04/07 03:40:10;;;;;;;8.20;2.55;;;5.00;88.60;;;;;;5011487;28;20025;-74
2021/04/07 03:42:36;;;;;;;8.88;2.88;;;5.00;88.90;;;;;;5012156;28;20037;-74
2021/04/07 03:45:02;;;;;;;5.50;2.38;;;4.90;88.80;;;;;;5012155;28;20239;-74
2021/04/07 03:47:28;;;;;;;6.68;2.35;;;4.90;88.80;;;;;;5011003;28;20030;-74
2021/04/07 03:49:53;;;;;;;10.65;2.90;;;4.90;88.90;;;;;;5015902;28;20030;-73
2021/04/07 03:52:19;;;;;;;8.45;2.80;;;5.00;88.80;;;;;;5012306;28;20531;-73
2021/04/07 03:54:44;;;;;;;9.57;2.72;;;5.00;88.90;;;;;;5009498;28;20030;-75
2021/04/07 03:57:10;;;;;;;6.00;3.25;;;4.90;88.90;;;;;;5022651;28;20482;-75
2021/04/07 03:59:36;;;;;;;7.50;2.60;;;5.00;89.00;;;;;;5027613;28;20125;-75
2021/04/07 04:02:02;;;;;;;7.18;2.63;;;4.90;88.90;;;;;;5016850;28;20052;-76
2021/04/07 04:04:27;;;;;;;8.02;2.60;;;5.00;88.90;;;;;;5032138;28;20446;-75
2021/04/07 04:06:53;;;;;;;9.18;3.13;;;4.90;88.80;;;;;;5021000;28;20067;-75
2021/04/07 04:09:18;;;;;;;6.43;2.72;;;4.90;88.90;;;;;;5030674;28;20029;-75
2021/04/07 04:11:44;;;;;;;5.05;2.67;;;4.90;89.10;;;;;;5020634;28;20032;-74
2021/04/07 04:14:09;;;;;;;5.07;2.88;;;4.90;89.40;;;;;;5012752;28;20045;-75
2021/04/07 04:16:35;;;;;;;7.70;3.33;;;5.00;89.20;;;;;;5013291;28;20026;-75
2021/04/07 04:19:00;;;;;;;7.95;2.78;;;5.00;89.10;;;;;;5005266;28;20068;-75
2021/04/07 04:21:26;;;;;;;6.72;3.22;;;5.00;89.10;;;;;;5010999;28;20025;-75
2021/04/07 04:23:51;;;;;;;7.32;3.28;;;5.00;89.10;;;;;;5012391;28;20751;-75
2021/04/07 04:26:17;;;;;;;11.20;3.28;;;5.00;88.90;;;;;;5010490;28;20109;-75
2021/04/07 04:28:42;;;;;;;5.95;2.90;;;5.00;88.90;;;;;;4992428;28;20124;-76
2021/04/07 04:31:08;;;;;;;7.75;3.38;;;5.00;89.10;;;;;;5011743;28;20026;-75
2021/04/07 04:33:33;;;;;;;9.93;3.67;;;5.00;88.90;;;;;;4996469;28;20072;-75
2021/04/07 04:35:59;;;;;;;9.07;3.20;;;5.00;89.20;;;;;;5009075;28;20033;-75
2021/04/07 04:38:25;;;;;;;9.40;2.90;;;5.00;89.20;;;;;;5010977;28;20394;-75
2021/04/07 04:40:51;;;;;;;6.90;2.70;;;5.10;88.90;;;;;;5010162;28;20053;-76
2021/04/07 04:43:16;;;;;;;5.82;2.90;;;5.00;88.90;;;;;;5012708;28;20033;-77
2021/04/07 04:45:42;;;;;;;7.00;2.92;;;5.00;88.80;;;;;;5011542;28;20396;-77
2021/04/07 04:48:07;;;;;;;5.82;2.60;;;5.00;89.20;;;;;;5023936;28;20466;-77
2021/04/07 04:50:33;;;;;;;8.85;2.97;;;5.00;88.90;;;;;;5026856;28;20058;-77
2021/04/07 04:52:59;;;;;;;8.82;3.25;;;5.00;89.30;;;;;;5024111;28;20063;-76
2021/04/07 04:55:24;;;;;;;5.22;3.15;;;5.00;88.80;;;;;;5017134;28;20087;-76
2021/04/07 04:57:50;;;;;;;9.25;3.13;;;5.00;88.90;;;;;;5017130;28;20037;-76
2021/04/07 05:00:16;;;;;;;10.32;3.05;;;5.00;88.90;;;;;;5010891;28;20049;-76
2021/04/07 05:02:41;;;;;;;5.57;2.95;;;5.00;88.50;;;;;;5020738;28;20534;-76
2021/04/07 05:05:07;;;;;;;10.70;3.63;;;5.00;88.30;;;;;;5020904;28;20022;-77
2021/04/07 05:07:32;;;;;;;7.82;3.33;;;5.10;88.40;;;;;;5020109;28;20132;-76
2021/04/07 05:09:58;;;;;;;7.78;3.13;;;5.10;88.40;;;;;;5023099;28;20088;-76
2021/04/07 05:12:23;;;;;;;9.13;3.50;;;5.10;88.30;;;;;;5011548;28;20348;-76
2021/04/07 05:14:50;;;;;;;8.98;3.20;;;5.10;88.20;;;;;;5016898;28;20038;-76
2021/04/07 05:17:16;;;;;;;9.07;3.08;;;5.10;88.00;;;;;;5007805;28;20022;-74
2021/04/07 05:19:42;;;;;;;8.10;3.38;;;5.10;88.40;;;;;;5011468;28;20030;-75
2021/04/07 05:22:08;;;;;;;11.07;3.65;;;5.10;88.10;;;;;;5013693;28;20040;-75
2021/04/07 05:24:33;;;;;;;7.90;3.63;;;5.10;88.00;;;;;;5011263;28;20068;-75
2021/04/07 05:26:59;;;;;;;8.52;3.10;;;5.10;88.20;;;;;;5013858;28;20025;-74
2021/04/07 05:29:24;;;;;;;10.75;2.88;;;5.10;88.50;;;;;;5010481;28;20026;-74
2021/04/07 05:31:50;;;;;;;6.65;2.58;;;5.10;88.30;;;;;;5007216;28;20411;-72
2021/04/07 05:34:15;;;;;;;7.95;2.90;;;5.10;88.20;;;;;;5009716;28;20040;-73
2021/04/07 05:36:41;;;;;;;7.35;3.10;;;5.10;88.20;;;;;;5020514;28;20437;-72
2021/04/07 05:39:06;;;;;;;8.45;3.17;;;5.10;88.70;;;;;;5011731;28;20073;-73
2021/04/07 05:41:32;;;;;;;8.43;3.22;;;5.10;88.50;;;;;;5008808;28;20082;-75
2021/04/07 05:43:58;;;;;;;7.72;2.83;;;5.10;88.50;;;;;;5000744;28;20026;-74
2021/04/07 05:46:24;;;;;;;7.25;2.88;;;5.10;88.10;;;;;;5016836;28;20091;-73
2021/04/07 05:48:49;;;;;;;11.35;2.85;;;5.10;88.00;;;;;;5019539;28;20030;-73
2021/04/07 05:51:15;;;;;;;10.23;2.78;;;5.10;88.00;;;;;;5013205;28;20041;-73
2021/04/07 05:53:40;;;;;;;10.25;2.67;;;5.20;87.90;;;;;;4993210;28;20483;-73
2021/04/07 05:56:06;;;;;;;9.48;2.63;;;5.20;87.80;;;;;;4995141;28;20082;-73
2021/04/07 05:58:31;;;;;;;9.23;3.50;;;5.20;87.60;;;;;;5021132;28;20049;-73
2021/04/07 06:00:57;;;;;;;14.85;3.20;;;5.20;87.50;;;;;;5014377;28;20072;-73
2021/04/07 06:03:23;;;;;;;12.82;3.10;;;5.20;87.60;;;;;;5012172;28;20022;-73
2021/04/07 06:05:49;;;;;;;10.00;3.13;;;5.20;87.50;;;;;;5014605;28;20022;-73
2021/04/07 06:08:16;;;;;;;7.85;3.13;;;5.30;87.40;;;;;;4994923;28;20030;-73
2021/04/07 06:10:44;;;;;;;6.93;3.42;;;5.30;87.40;;;;;;4994821;28;20052;-72
2021/04/07 06:13:11;;;;;;;11.77;3.58;;;5.30;87.60;;;;;;5008684;28;20057;-72
2021/04/07 06:15:38;;;;;;;7.40;2.90;;;5.40;87.20;;;;;;5034262;28;20079;-73
2021/04/07 06:18:07;;;;;;;8.85;2.60;;;5.40;86.80;;;;;;5015992;28;20113;-74
2021/04/07 06:20:36;;;;;;;5.80;2.50;;;5.40;86.80;;;;;;5014261;28;20101;-74
2021/04/07 06:23:04;;;;;;;7.60;2.97;;;5.40;86.60;;;;;;5027599;28;20038;-74
2021/04/07 06:25:30;;;;;;;7.55;3.38;;;5.30;86.60;;;;;;5032691;28;20036;-68
2021/04/07 06:27:58;;;;;;;9.98;3.08;;;5.40;86.70;;;;;;5026387;28;20053;-69
2021/04/07 06:33:31;;;;;;;11.07;2.80;;;5.50;86.80;;;;;;4929282;29;20134;-71
2021/04/07 06:36:01;;;;;;;10.32;3.17;;;5.60;86.80;;;;;;4989006;28;20441;-69
2021/04/07 06:38:27;;;;;;;9.45;2.75;;;5.70;86.40;;;;;;5030848;28;20049;-70
2021/04/07 06:40:53;;;;;;;10.75;3.55;;;5.70;86.30;;;;;;5017181;28;20034;-67
2021/04/07 06:43:24;;;;;;;11.90;2.97;;;5.70;85.50;;;;;;5012508;28;20036;-68
2021/04/07 06:45:50;;;;;;;6.40;2.75;;;5.80;85.10;;;;;;5013261;28;20085;-68
2021/04/07 06:48:16;;;;;;;7.60;2.90;;;5.80;85.10;;;;;;5026729;28;20068;-68
2021/04/07 06:50:45;;;;;;;10.32;2.80;;;5.80;85.10;;;;;;5013941;28;20114;-68
2021/04/07 06:53:10;;;;;;;7.47;2.63;;;5.80;85.00;;;;;;5011791;28;20033;-68
2021/04/07 06:55:37;;;;;;;14.45;3.08;;;5.90;85.00;;;;;;5012833;28;20486;-68
2021/04/07 06:58:07;;;;;;;7.07;3.42;;;5.90;84.70;;;;;;5026727;28;20041;-65
2021/04/07 07:00:34;;;;;;;9.00;2.85;;;5.90;84.70;;;;;;5017359;28;20088;-70
2021/04/07 07:03:05;;;;;;;8.07;3.15;;;5.90;84.70;;;;;;5012599;28;20033;-70
2021/04/07 07:05:32;;;;;;;9.32;2.90;;;5.90;84.80;;;;;;5017149;28;20026;-69
2021/04/07 07:08:06;;;;;;;10.23;2.95;;;5.90;84.70;;;;;;5026576;28;20059;-70
2021/04/07 07:10:42;;;;;;;7.97;2.60;;;6.00;85.30;;;;;;5025114;28;20026;-70
2021/04/07 07:13:11;;;;;;;11.95;3.05;;;6.00;84.90;;;;;;5012259;28;20048;-70
2021/04/07 07:15:37;;;;;;;10.20;3.35;;;6.00;84.80;;;;;;5012108;28;20025;-69
2021/04/07 07:18:04;;;;;;;9.77;3.15;;;5.90;85.40;;;;;;5012384;28;20136;-69
2021/04/07 07:20:32;;;;;;;8.15;2.72;;;5.90;86.10;;;;;;5012933;28;20030;-69
2021/04/07 07:22:59;;;;;;;8.95;3.30;;;5.80;86.80;;;;;;5012295;28;20034;-70
2021/04/07 07:25:25;;;;;;;7.88;3.55;;;5.80;87.60;;;;;;4990717;28;20019;-70
2021/04/07 07:27:58;;;;;;;11.20;3.03;;;5.70;88.10;;;;;;5005321;28;20549;-70
2021/04/07 07:30:32;;;;;;;8.05;3.33;;;5.70;88.80;;;;;;5015292;28;20033;-70
2021/04/07 07:32:58;;;;;;;7.97;3.17;;;5.70;89.00;;;;;;5017677;28;20041;-70
2021/04/07 07:35:23;;;;;;;8.65;3.58;;;5.80;89.10;;;;;;5009852;28;20042;-70
2021/04/07 07:37:59;;;;;;;7.47;3.08;;;5.90;89.20;;;;;;5023094;28;20127;-70
2021/04/07 07:40:25;;;;;;;12.35;3.72;;;5.90;89.20;;;;;;5018653;28;20048;-70
2021/04/07 07:42:51;;;;;;;11.32;2.90;;;6.00;89.30;;;;;;5029306;28;20033;-69
2021/04/07 07:45:26;;;;;;;12.27;3.60;;;6.10;89.20;;;;;;5016371;28;20026;-69
2021/04/07 07:48:13;;;;;;;13.38;3.30;;;6.10;88.50;;;;;;5024873;28;20410;-69
2021/04/07 07:50:42;;;;;;;9.77;3.13;;;6.20;88.40;;;;;;5014125;28;20045;-71
2021/04/07 07:53:22;;;;;;;8.85;3.00;;;6.30;88.20;;;;;;5014550;28;20648;-69
2021/04/07 07:55:52;;;;;;;11.98;3.15;;;6.40;88.10;;;;;;5016274;28;20048;-69
2021/04/07 07:58:23;;;;;;;14.63;3.53;;;6.40;87.30;;;;;;5029573;28;20109;-68
2021/04/07 08:00:49;;;;;;;9.35;3.28;;;6.40;86.70;;;;;;5015775;28;20556;-67
2021/04/07 08:03:15;;;;;;;8.75;2.83;;;6.40;86.00;;;;;;5025816;28;20056;-67
2021/04/07 08:05:43;;;;;;;9.85;2.95;;;6.50;86.10;;;;;;5017345;28;20026;-67
2021/04/07 08:08:09;;;;;;;8.13;2.92;;;6.50;85.40;;;;;;5024350;28;20029;-67
2021/04/07 08:10:37;;;;;;;8.82;3.58;;;6.40;84.10;;;;;;5010240;28;20077;-67
2021/04/07 08:13:05;;;;;;;9.43;3.47;;;6.40;84.70;;;;;;5024822;28;20424;-66
2021/04/07 08:15:31;;;;;;;9.80;3.13;;;6.40;84.90;;;;;;5012083;28;20060;-67
2021/04/07 08:17:58;;;;;;;8.38;3.25;;;6.50;85.10;;;;;;5010686;28;20065;-66
2021/04/07 08:20:25;;;;;;;9.43;3.08;;;6.60;85.20;;;;;;5013617;28;20034;-67
2021/04/07 08:22:54;;;;;;;10.95;3.08;;;6.70;84.60;;;;;;5008360;28;20026;-67
2021/04/07 08:25:21;;;;;;;9.73;3.42;;;6.80;84.60;;;;;;5011989;28;20080;-66
2021/04/07 08:27:51;;;;;;;9.25;2.80;;;6.90;83.80;;;;;;5012734;28;20054;-67
2021/04/07 08:30:17;;;;;;;8.35;2.92;;;7.00;82.80;;;;;;5013579;28;20378;-67
2021/04/07 08:32:45;;;;;;;7.57;2.70;;;7.10;82.00;;;;;;5014465;28;20319;-67
2021/04/07 08:35:12;;;;;;;8.68;2.65;;;7.20;81.60;;;;;;5011394;28;20033;-68
2021/04/07 08:37:37;;;;;;;9.93;3.00;;;7.20;80.80;;;;;;5022005;28;20025;-68
2021/04/07 08:40:17;;;;;;;8.95;2.75;;;7.20;79.90;;;;;;5020262;28;20117;-68
2021/04/07 08:42:43;;;;;;;10.52;2.53;;;7.30;79.70;;;;;;5022908;28;20061;-68
2021/04/07 08:45:12;;;;;;;7.90;2.88;;;7.40;79.00;;;;;;5018228;28;20083;-68
2021/04/07 08:47:49;;;;;;;11.43;2.65;;;7.40;78.20;;;;;;5004090;28;20057;-68
2021/04/07 08:50:15;;;;;;;8.23;3.17;;;7.40;77.80;;;;;;5004724;28;20041;-68
2021/04/07 08:52:49;;;;;;;6.85;3.00;;;7.40;77.50;;;;;;5022633;28;20030;-68
2021/04/07 08:55:22;;;;;;;9.02;2.95;;;7.50;77.70;;;;;;5009890;28;20033;-68
2021/04/07 08:57:59;;;;;;;9.75;3.47;;;7.50;76.30;;;;;;5022811;28;20029;-68
2021/04/07 09:00:27;;;;;;;8.45;2.85;;;7.60;76.70;;;;;;5022172;28;20050;-68
2021/04/07 09:02:54;;;;;;;7.68;3.20;;;7.60;76.30;;;;;;5012824;28;20088;-68
2021/04/07 09:05:35;;;;;;;8.43;2.50;;;7.70;76.00;;;;;;4993161;28;20364;-68
2021/04/07 09:08:01;;;;;;;8.50;3.15;;;7.70;73.90;;;;;;5013193;28;20120;-68
2021/04/07 09:10:39;;;;;;;10.27;2.78;;;7.70;74.00;;;;;;4994139;28;20030;-68
2021/04/07 09:13:07;;;;;;;9.20;2.50;;;7.70;74.10;;;;;;5014914;28;20062;-68
2021/04/07 09:15:33;;;;;;;9.48;2.95;;;7.70;73.50;;;;;;5013125;28;20036;-68
2021/04/07 09:17:59;;;;;;;9.52;3.67;;;7.80;73.00;;;;;;5019252;28;20022;-68
2021/04/07 09:20:42;;;;;;;7.97;2.58;;;7.80;73.20;;;;;;5035176;28;20474;-69
2021/04/07 09:23:26;;;;;;;9.23;2.67;;;7.90;72.10;;;;;;5023307;28;20025;-67
2021/04/07 09:25:54;;;;;;;8.13;2.67;;;7.90;72.00;;;;;;5015142;28;20030;-67
2021/04/07 09:28:34;;;;;;;8.35;2.67;;;7.90;69.60;;;;;;5016058;28;20052;-69
2021/04/07 09:31:05;;;;;;;9.18;2.97;;;7.90;69.90;;;;;;5014678;28;20076;-68
2021/04/07 09:33:31;;;;;;;9.63;2.72;;;8.00;68.90;;;;;;5000145;28;20053;-68
2021/04/07 09:35:58;;;;;;;7.72;2.28;;;7.90;68.70;;;;;;5005409;28;20374;-68
2021/04/07 09:38:30;;;;;;;7.93;2.50;;;8.00;68.10;;;;;;5004994;28;20116;-68
2021/04/07 09:41:04;;;;;;;7.22;2.63;;;8.10;68.40;;;;;;5025652;28;20076;-68
2021/04/07 09:43:31;;;;;;;9.73;3.15;;;8.10;67.20;;;;;;5013748;28;20097;-68
2021/04/07 09:45:57;;;;;;;7.35;2.67;;;8.20;65.00;;;;;;5029093;28;20036;-68
2021/04/07 09:48:52;;;;;;;9.48;3.40;;;8.10;65.10;;;;;;5030666;28;20044;-69
2021/04/07 09:51:30;;;;;;;6.25;2.70;;;8.20;62.90;;;;;;5015315;28;20109;-68
2021/04/07 09:54:12;;;;;;;9.68;2.88;;;8.20;64.00;;;;;;5026260;28;20038;-68
2021/04/07 09:56:52;;;;;;;5.80;2.42;;;8.20;62.80;;;;;;5027785;28;20048;-68
2021/04/07 09:59:37;;;;;;;5.88;2.97;;;8.20;63.10;;;;;;5028176;28;20025;-68
2021/04/07 10:02:05;;;;;;;12.35;3.33;;;8.30;62.60;;;;;;5014091;28;20125;-67
2021/04/07 10:04:32;;;;;;;6.60;2.80;;;8.20;62.50;;;;;;5013433;28;20037;-68
2021/04/07 10:07:13;;;;;;;7.15;2.42;;;8.20;61.80;;;;;;5009549;28;20079;-69
2021/04/07 10:09:42;;;;;;;9.18;3.42;;;8.20;60.30;;;;;;5014284;28;20029;-69
2021/04/07 10:12:08;;;;;;;7.80;2.47;;;8.20;61.20;;;;;;5005785;28;20034;-69
2021/04/07 10:14:34;;;;;;;6.15;2.40;;;8.30;61.70;;;;;;4999044;28;20041;-69
2021/04/07 10:17:11;;;;;;;6.32;2.17;;;8.40;61.20;;;;;;4996929;28;20360;-70
2021/04/07 10:19:37;;;;;;;6.28;2.72;;;8.50;60.50;;;;;;5012921;28;20033;-69
2021/04/07 10:22:05;;;;;;;7.45;2.40;;;8.50;59.40;;;;;;5028158;28;20030;-68
2021/04/07 10:24:31;;;;;;;7.60;2.33;;;8.60;59.60;;;;;;5010736;28;20382;-68
2021/04/07 10:26:56;;;;;;;5.60;3.15;;;8.70;58.90;;;;;;4994658;28;20018;-70
2021/04/07 10:29:24;;;;;;;6.82;2.50;;;8.70;57.50;;;;;;5005334;28;20030;-69
2021/04/07 10:31:53;;;;;;;8.27;3.03;;;8.80;57.00;;;;;;5013591;28;20065;-68
2021/04/07 10:34:31;;;;;;;7.15;2.53;;;8.90;57.20;;;;;;5008339;28;20045;-68
2021/04/07 10:36:56;;;;;;;5.03;2.08;;;8.90;57.20;;;;;;5013927;28;20061;-68
2021/04/07 10:39:22;;;;;;;7.97;2.35;;;9.00;57.20;;;;;;5013764;28;20053;-67
2021/04/07 10:41:48;;;;;;;7.75;2.47;;;9.20;57.00;;;;;;5013540;28;20030;-68
2021/04/07 10:44:28;;;;;;;6.47;2.30;;;9.30;55.90;;;;;;5013813;28;20104;-68
2021/04/07 10:46:54;;;;;;;7.00;2.55;;;9.30;55.00;;;;;;5013873;28;20057;-68
2021/04/07 10:49:38;;;;;;;6.50;2.28;;;9.30;54.50;;;;;;5013866;28;20041;-68
2021/04/07 10:52:06;;;;;;;7.18;2.13;;;9.30;54.90;;;;;;5014357;28;20034;-67
2021/04/07 10:54:33;;;;;;;5.85;2.30;;;9.20;55.00;;;;;;5021535;28;20034;-68
2021/04/07 10:57:04;;;;;;;7.00;2.17;;;9.20;54.50;;;;;;5013826;28;20026;-69
2021/04/07 10:59:31;;;;;;;7.60;2.60;;;9.30;54.70;;;;;;5013109;28;20045;-67
2021/04/07 11:01:58;;;;;;;4.97;2.50;;;9.30;54.80;;;;;;5012672;28;20053;-68
2021/04/07 11:04:27;;;;;;;6.40;2.70;;;9.40;54.00;;;;;;5012586;28;20041;-69
2021/04/07 11:06:58;;;;;;;9.18;2.40;;;9.50;53.80;;;;;;5013278;28;20439;-69
2021/04/07 11:09:25;;;;;;;7.95;1.98;;;9.40;54.00;;;;;;5011574;28;20044;-68
2021/04/07 11:11:51;;;;;;;7.50;2.00;;;9.50;54.00;;;;;;5013380;28;20022;-68
2021/04/07 11:14:17;;;;;;;5.15;2.28;;;9.50;53.60;;;;;;5012523;28;20040;-68
2021/04/07 11:16:43;;;;;;;6.10;2.20;;;9.50;53.90;;;;;;5012903;28;20072;-67
2021/04/07 11:19:15;;;;;;;6.10;2.30;;;9.50;53.60;;;;;;5011708;28;20033;-70
2021/04/07 11:21:42;;;;;;;7.35;2.20;;;9.50;53.00;;;;;;5013611;28;20407;-69
2021/04/07 11:24:08;;;;;;;8.65;2.70;;;9.40;53.80;;;;;;4995964;28;20033;-68
2021/04/07 11:26:33;;;;;;;7.20;2.35;;;9.50;54.10;;;;;;5012774;28;20029;-69
2021/04/07 11:28:59;;;;;;;5.30;2.10;;;9.50;53.90;;;;;;5012693;28;20026;-68
2021/04/07 11:31:28;;;;;;;4.75;2.20;;;9.40;53.60;;;;;;5012878;28;20381;-70
2021/04/07 11:33:58;;;;;;;8.00;2.25;;;9.30;54.10;;;;;;5012144;28;20056;-69
2021/04/07 11:36:46;;;;;;;6.07;2.58;;;9.20;54.40;;;;;;5012121;28;20048;-67
2021/04/07 11:39:17;;;;;;;5.93;2.30;;;9.30;54.70;;;;;;5011493;28;20033;-69
2021/04/07 11:46:40;;;;;;;5.95;2.70;;;9.30;54.90;;;;;;5011703;28;20034;-69
2021/04/07 11:49:06;;;;;;;6.05;2.40;;;9.30;54.70;;;;;;5012144;28;20022;-68
2021/04/07 11:51:36;;;;;;;4.80;2.42;;;9.30;55.00;;;;;;5017849;28;20397;-68
2021/04/07 11:54:03;;;;;;;8.25;2.53;;;9.30;55.50;;;;;;5010029;28;20498;-68
2021/04/07 11:56:28;;;;;;;7.35;3.10;;;9.40;55.30;;;;;;5006756;28;20037;-68
2021/04/07 11:58:54;;;;;;;4.85;2.60;;;9.40;55.00;;;;;;5009115;28;20478;-68
2021/04/07 12:01:19;;;;;;;5.05;2.03;;;9.50;55.10;;;;;;5009106;28;20042;-69
2021/04/07 12:03:45;;;;;;;7.05;2.03;;;9.50;55.10;;;;;;5009865;28;20030;-68
2021/04/07 12:06:11;;;;;;;5.25;2.13;;;9.60;55.20;;;;;;5012109;28;20029;-68
2021/04/07 12:08:37;;;;;;;6.38;1.90;;;9.70;55.10;;;;;;5002936;28;20076;-68
2021/04/07 12:11:02;;;;;;;6.65;2.08;;;9.70;54.40;;;;;;5008189;28;20019;-69
2021/04/07 12:13:28;;;;;;;3.83;1.73;;;9.70;54.40;;;;;;4993421;28;20471;-69
2021/04/07 12:15:55;;;;;;;4.80;1.60;;;9.70;54.30;;;;;;5012311;28;20034;-69
2021/04/07 12:18:21;;;;;;;4.07;1.90;;;9.70;53.90;;;;;;5010885;28;20500;-68
2021/04/07 12:20:47;;;;;;;3.78;1.48;;;9.70;54.00;;;;;;5011819;28;20116;-69
2021/04/07 12:23:12;;;;;;;4.32;1.83;;;9.70;53.80;;;;;;5006307;28;20033;-69
2021/04/07 12:25:38;;;;;;;4.03;1.50;;;9.80;54.00;;;;;;5008635;28;20441;-68
2021/04/07 12:28:05;;;;;;;2.22;1.40;;;9.80;53.80;;;;;;5006396;28;20042;-67
2021/04/07 12:30:32;;;;;;;3.35;1.50;;;9.80;53.10;;;;;;5012088;28;20479;-67
2021/04/07 12:32:58;;;;;;;2.47;1.45;;;9.80;53.20;;;;;;5012283;28;20180;-67
2021/04/07 12:35:23;;;;;;;3.53;1.40;;;9.80;53.30;;;;;;5011466;28;20674;-67
2021/04/07 12:37:49;;;;;;;2.78;1.42;;;9.80;53.30;;;;;;5012168;28;20125;-67
2021/04/07 12:40:15;;;;;;;3.05;1.50;;;9.80;53.20;;;;;;5010805;28;20022;-68
2021/04/07 12:42:40;;;;;;;4.50;1.80;;;9.80;53.30;;;;;;5010788;28;20022;-68
2021/04/07 12:45:08;;;;;;;5.75;1.73;;;9.70;53.30;;;;;;5011880;28;20080;-71
2021/04/07 12:47:34;;;;;;;3.97;1.83;;;9.70;53.40;;;;;;5011097;28;20067;-71
2021/04/07 12:50:01;;;;;;;5.25;1.67;;;9.70;53.60;;;;;;5017235;28;20068;-70
2021/04/07 12:52:26;;;;;;;5.03;1.73;;;9.70;53.50;;;;;;5009581;28;20033;-71
2021/04/07 12:54:52;;;;;;;4.30;1.50;;;9.70;53.60;;;;;;5011539;28;20466;-71
2021/04/07 12:57:17;;;;;;;3.85;1.80;;;9.70;53.50;;;;;;5011630;28;20026;-72
2021/04/07 12:59:43;;;;;;;3.67;1.67;;;9.70;53.60;;;;;;5011664;28;20049;-72
2021/04/07 13:02:09;;;;;;;3.40;1.55;;;9.80;53.40;;;;;;4993859;28;20026;-71
2021/04/07 13:04:34;;;;;;;6.95;1.98;;;9.80;53.40;;;;;;5010498;28;20116;-72